Terminal Aerodrome Forecast
Issued by NWS

Home | Current Version | Previous Version | Text Only | Print | Product List | Glossary On
Versions: 1 2 3 4 5 6 7 8 9 10 11 12 13 14 15 16 17
000
FTUS45 KGJT 160526
TAFTEX
TAF
KTEX 160526Z 1606/1706 11005KT P6SM SCT100 BKN200
     FM161200 19010KT P6SM BKN100
     FM161900 26008G16KT P6SM VCSH SCT060 OVC100
     FM170200 07003KT P6SM SCT100=

USA.gov is the U.S. government's official web portal to all federal, state and local government web resources and services.